Time;durP1;ratioP1;P1;durP2;ratioP2;P2;SDS_P1;SDS_P2;PMS_P1;PMS_P2;Temp;Humidity;BMP_temperature;BMP_pressure;BME280_temperature;BME280_humidity;BME280_pressure;Samples;Min_cycle;Max_cycle;Signal;HPM_P1;HPM_P2
2022/11/17 00:01:20;;;;;;;6.70;4.80;;;;;;;5.95;96.28;99391.34;103807;1300;60870;-77
2022/11/17 00:03:48;;;;;;;6.40;4.90;;;;;;;5.92;96.16;99389.15;103420;1294;75936;-78
2022/11/17 00:06:16;;;;;;;6.70;5.60;;;;;;;5.90;96.22;99387.68;103678;1296;69849;-77
2022/11/17 00:08:42;;;;;;;6.40;5.20;;;;;;;5.89;96.18;99389.57;103678;1294;72039;-77
2022/11/17 00:11:09;;;;;;;6.30;5.00;;;;;;;5.89;96.04;99388.91;103699;1286;61282;-77
2022/11/17 00:16:21;;;;;;;6.80;5.10;;;;;;;5.91;96.07;99382.84;104124;1295;74533;-78
2022/11/17 00:21:33;;;;;;;6.50;5.10;;;;;;;5.87;95.96;99374.19;103717;1295;72018;-77
2022/11/17 00:24:00;;;;;;;6.90;5.50;;;;;;;5.86;96.17;99368.34;103402;1303;61325;-77
2022/11/17 00:26:32;;;;;;;8.10;5.80;;;;;;;5.85;96.02;99365.09;103926;1292;61385;-77
2022/11/17 00:29:01;;;;;;;7.80;5.60;;;;;;;5.85;96.03;99358.28;103395;1295;73554;-77
2022/11/17 00:34:20;;;;;;;7.30;5.60;;;;;;;5.81;96.00;99335.41;104064;1287;72442;-77
2022/11/17 00:36:47;;;;;;;7.90;5.80;;;;;;;5.79;95.86;99333.56;103945;1285;61216;-77
2022/11/17 00:39:15;;;;;;;6.80;5.60;;;;;;;5.77;95.93;99333.55;103747;1292;61155;-78
2022/11/17 00:41:42;;;;;;;7.40;5.70;;;;;;;5.77;96.04;99323.45;103450;1301;73086;-76
2022/11/17 00:44:09;;;;;;;7.00;5.50;;;;;;;5.75;96.02;99327.11;103724;1293;61560;-75
2022/11/17 00:46:37;;;;;;;7.50;5.50;;;;;;;5.75;96.12;99329.13;103522;1298;72747;-77
2022/11/17 00:49:05;;;;;;;7.10;5.40;;;;;;;5.73;96.13;99326.51;103466;1294;61277;-77
2022/11/17 00:51:32;;;;;;;7.30;5.40;;;;;;;5.71;96.33;99319.61;103525;1295;61499;-78
2022/11/17 00:53:59;;;;;;;7.00;5.50;;;;;;;5.71;96.26;99324.41;104063;1294;75525;-78
2022/11/17 00:56:26;;;;;;;6.30;5.50;;;;;;;5.70;96.37;99326.58;104434;1301;71239;-74
2022/11/17 00:58:53;;;;;;;7.10;5.30;;;;;;;5.69;96.20;99320.81;103599;1302;71278;-76
2022/11/17 01:01:20;;;;;;;6.90;5.20;;;;;;;5.68;96.05;99314.54;103733;1292;61722;-77
2022/11/17 01:03:47;;;;;;;8.30;5.70;;;;;;;5.67;96.03;99303.16;103467;1297;61177;-76
2022/11/17 01:06:16;;;;;;;8.40;6.40;;;;;;;5.62;95.95;99298.29;103710;1295;73088;-77
2022/11/17 01:08:43;;;;;;;7.50;5.80;;;;;;;5.60;95.84;99297.39;103746;1294;71156;-77
2022/11/17 01:11:13;;;;;;;8.40;6.60;;;;;;;5.60;95.80;99292.17;103911;1300;71118;-78
2022/11/17 01:13:41;;;;;;;7.50;5.50;;;;;;;5.59;95.83;99286.73;104423;1292;61192;-77
2022/11/17 01:16:11;;;;;;;8.90;6.10;;;;;;;5.57;95.76;99284.44;103687;1290;61181;-78
2022/11/17 01:18:38;;;;;;;7.90;5.50;;;;;;;5.52;95.63;99277.33;103751;1294;73116;-77
2022/11/17 01:21:14;;;;;;;8.20;6.20;;;;;;;5.51;95.53;99277.42;103907;1300;71687;-78
2022/11/17 01:23:42;;;;;;;7.20;5.00;;;;;;;5.49;95.43;99274.55;103728;1292;73115;-78
2022/11/17 01:26:14;;;;;;;6.80;5.10;;;;;;;5.46;95.36;99276.77;103521;1293;61282;-77
2022/11/17 01:28:41;;;;;;;6.40;5.20;;;;;;;5.46;95.49;99285.91;103915;1292;59279;-78
2022/11/17 01:31:14;;;;;;;6.70;5.10;;;;;;;5.44;95.26;99279.36;104160;1293;75796;-79
2022/11/17 01:33:41;;;;;;;6.80;4.90;;;;;;;5.42;95.07;99278.68;103598;1279;71143;-77
2022/11/17 01:36:12;;;;;;;6.80;5.10;;;;;;;5.39;95.02;99270.81;103762;1295;71011;-78
2022/11/17 01:38:38;;;;;;;6.40;4.40;;;;;;;5.37;94.87;99265.41;103314;1298;61287;-78
2022/11/17 01:41:11;;;;;;;5.90;4.60;;;;;;;5.35;94.76;99256.59;103796;1285;61286;-78
2022/11/17 01:43:41;;;;;;;5.20;4.10;;;;;;;5.36;94.89;99252.72;103668;1294;74197;-78
2022/11/17 01:46:26;;;;;;;6.10;4.40;;;;;;;5.38;94.92;99249.00;104061;1294;70833;-77
2022/11/17 01:49:08;;;;;;;5.40;3.90;;;;;;;5.37;94.83;99244.71;103993;1287;71617;-78
2022/11/17 01:51:40;;;;;;;7.00;4.30;;;;;;;5.36;94.64;99229.79;103568;1302;61290;-78
2022/11/17 01:54:09;;;;;;;6.60;4.60;;;;;;;5.34;94.72;99234.69;103744;1295;61395;-78
2022/11/17 01:56:40;;;;;;;5.60;4.40;;;;;;;5.35;94.51;99240.89;103748;1301;73683;-78
2022/11/17 01:59:29;;;;;;;7.70;5.30;;;;;;;5.37;94.88;99232.50;103575;1294;69954;-76
2022/11/17 02:01:56;;;;;;;5.70;4.50;;;;;;;5.37;94.85;99228.60;103604;1291;72550;-78
2022/11/17 02:04:43;;;;;;;5.60;4.50;;;;;;;5.37;94.86;99230.37;104301;1288;61878;-76
2022/11/17 02:07:24;;;;;;;6.60;4.40;;;;;;;5.38;94.78;99212.59;103721;1294;60871;-76
2022/11/17 02:09:52;;;;;;;5.50;3.80;;;;;;;5.39;94.84;99201.71;103926;1294;73166;-78
2022/11/17 02:12:20;;;;;;;6.20;4.50;;;;;;;5.40;94.39;99196.02;104485;1300;71570;-78
2022/11/17 02:14:50;;;;;;;7.40;4.60;;;;;;;5.37;94.13;99189.14;104832;1291;71514;-78
2022/11/17 02:17:18;;;;;;;6.30;4.10;;;;;;;5.39;93.77;99190.55;103862;1286;61358;-78
2022/11/17 02:19:55;;;;;;;5.10;4.00;;;;;;;5.37;93.76;99199.02;104117;1292;61405;-77
2022/11/17 02:23:12;;;;;;;6.40;4.80;;;;;;;5.38;93.70;99203.77;104860;1293;74740;-78
2022/11/17 02:26:03;;;;;;;4.90;3.30;;;;;;;5.39;93.95;99196.74;103996;1297;69053;-77
2022/11/17 02:28:41;;;;;;;6.50;4.60;;;;;;;5.37;93.93;99200.02;104279;1288;71216;-77
2022/11/17 02:31:21;;;;;;;6.80;4.60;;;;;;;5.38;94.06;99196.40;103895;1293;61292;-78
2022/11/17 02:33:54;;;;;;;7.00;4.50;;;;;;;5.40;94.07;99189.70;104802;1294;61391;-79
2022/11/17 02:36:38;;;;;;;5.90;4.60;;;;;;;5.41;94.40;99193.45;104053;1292;74096;-79
2022/11/17 02:39:18;;;;;;;7.00;4.70;;;;;;;5.41;94.57;99186.98;103967;1301;69752;-78
2022/11/17 02:41:55;;;;;;;6.70;4.30;;;;;;;5.39;94.90;99178.38;104786;1294;73824;-79
2022/11/17 02:44:36;;;;;;;6.60;4.80;;;;;;;5.37;95.23;99172.83;103767;1295;62228;-78
2022/11/17 02:47:14;;;;;;;5.80;4.30;;;;;;;5.35;95.42;99168.17;103543;1288;61394;-79
2022/11/17 02:49:49;;;;;;;7.20;4.90;;;;;;;5.30;95.63;99167.98;103628;1294;74327;-78
2022/11/17 02:52:18;;;;;;;6.70;4.80;;;;;;;5.29;95.69;99164.39;103441;1288;72124;-76
2022/11/17 02:54:45;;;;;;;6.70;4.30;;;;;;;5.30;95.73;99163.44;103963;1295;71221;-77
2022/11/17 02:57:31;;;;;;;6.20;4.70;;;;;;;5.27;96.02;99163.40;103767;1293;61210;-78
2022/11/17 03:00:02;;;;;;;7.40;4.90;;;;;;;5.26;96.10;99157.10;104655;1294;61263;-77
2022/11/17 03:02:35;;;;;;;6.40;4.80;;;;;;;5.24;96.23;99156.23;103849;1294;74599;-77
2022/11/17 03:05:26;;;;;;;6.00;4.50;;;;;;;5.22;96.35;99151.02;103795;1288;71283;-78
2022/11/17 03:08:08;;;;;;;6.40;5.10;;;;;;;5.21;96.29;99141.73;103617;1301;72919;-78
2022/11/17 03:10:49;;;;;;;8.60;5.20;;;;;;;5.17;96.48;99137.59;103795;1294;61619;-78
2022/11/17 03:13:29;;;;;;;9.20;5.40;;;;;;;5.17;96.63;99124.52;103562;1302;62581;-78
2022/11/17 03:16:11;;;;;;;7.30;5.60;;;;;;;5.15;96.67;99120.13;103637;1293;73469;-75
2022/11/17 03:18:53;;;;;;;6.80;5.40;;;;;;;5.13;96.77;99108.89;103820;1294;69502;-77
2022/11/17 03:21:29;;;;;;;6.90;5.50;;;;;;;5.10;96.73;99109.54;104500;1295;72631;-77
2022/11/17 03:24:04;;;;;;;8.00;5.20;;;;;;;5.09;96.67;99104.92;103693;1288;61335;-78
2022/11/17 03:26:38;;;;;;;7.90;5.70;;;;;;;5.08;96.68;99101.73;103777;1301;61387;-77
2022/11/17 03:29:09;;;;;;;7.60;5.70;;;;;;;5.05;96.55;99095.52;104013;1302;73213;-79
2022/11/17 03:31:37;;;;;;;8.60;6.20;;;;;;;5.05;96.35;99094.04;103335;1296;70098;-77
2022/11/17 03:34:08;;;;;;;8.40;6.10;;;;;;;5.04;96.06;99098.00;103469;1300;71547;-78
2022/11/17 03:36:38;;;;;;;9.60;6.30;;;;;;;5.05;95.67;99090.99;103818;1296;61439;-79
2022/11/17 03:39:15;;;;;;;9.30;6.30;;;;;;;5.05;95.69;99097.69;104271;1287;61331;-77
2022/11/17 03:41:46;;;;;;;10.10;6.50;;;;;;;5.06;95.43;99093.42;103518;1288;75019;-78
2022/11/17 03:44:14;;;;;;;9.40;6.70;;;;;;;5.07;95.23;99092.90;103604;1291;69954;-76
2022/11/17 03:46:44;;;;;;;8.90;6.60;;;;;;;5.10;95.18;99091.66;103822;1295;70468;-77
2022/11/17 03:49:34;;;;;;;8.60;6.60;;;;;;;5.11;95.17;99096.57;103534;1292;61417;-75
2022/11/17 03:52:00;;;;;;;7.50;5.50;;;;;;;5.12;95.00;99086.85;103731;1296;59471;-76
2022/11/17 03:54:27;;;;;;;8.30;6.10;;;;;;;5.13;95.01;99083.78;103499;1294;73086;-77
2022/11/17 03:57:11;;;;;;;9.80;6.10;;;;;;;5.12;95.18;99082.17;104650;1295;72344;-77
2022/11/17 04:00:03;;;;;;;7.70;6.00;;;;;;;5.12;95.17;99089.63;103395;1292;72622;-76
2022/11/17 04:02:30;;;;;;;8.70;6.10;;;;;;;5.12;95.44;99087.97;103543;1292;61232;-76
2022/11/17 04:05:05;;;;;;;8.10;5.80;;;;;;;5.13;95.55;99090.81;103624;1292;59424;-76
2022/11/17 04:07:33;;;;;;;8.30;6.10;;;;;;;5.11;95.76;99085.21;103791;1298;74560;-77
2022/11/17 04:10:00;;;;;;;8.70;6.60;;;;;;;5.10;95.77;99085.81;103799;1301;71168;-78
2022/11/17 04:17:58;;;;;;;8.40;6.50;;;;;;;5.07;96.46;99067.52;104022;1295;61324;-77
2022/11/17 04:20:24;;;;;;;9.10;7.00;;;;;;;5.08;96.64;99072.99;103795;1301;72651;-77
2022/11/17 04:23:05;;;;;;;9.50;5.90;;;;;;;5.07;96.66;99062.63;103789;1291;61644;-78
2022/11/17 04:28:38;;;;;;;9.50;7.20;;;;;;;5.01;96.99;99056.07;103558;1287;61295;-76
2022/11/17 04:31:24;;;;;;;10.30;6.90;;;;;;;5.02;96.81;99057.96;103684;1287;59482;-78
2022/11/17 04:34:02;;;;;;;10.00;7.00;;;;;;;5.00;96.86;99053.55;103939;1297;74655;-77
2022/11/17 04:36:42;;;;;;;10.20;7.40;;;;;;;5.02;96.84;99052.45;104287;1298;70992;-78
2022/11/17 04:39:10;;;;;;;8.90;6.60;;;;;;;5.01;96.81;99045.40;103567;1298;70895;-76
2022/11/17 04:41:53;;;;;;;8.50;6.40;;;;;;;4.99;96.69;99042.01;103705;1291;61293;-78
2022/11/17 04:44:24;;;;;;;10.50;7.20;;;;;;;4.96;96.67;99040.23;104057;1301;61003;-79
2022/11/17 04:46:52;;;;;;;11.50;7.50;;;;;;;4.97;96.63;99039.03;103552;1301;73161;-79
2022/11/17 04:49:20;;;;;;;9.30;7.00;;;;;;;4.97;96.82;99033.84;103378;1295;71331;-78
2022/11/17 04:51:47;;;;;;;10.30;7.50;;;;;;;4.95;96.87;99030.19;103746;1294;71794;-78
2022/11/17 04:54:17;;;;;;;8.30;6.30;;;;;;;4.92;96.74;99034.95;104174;1288;61172;-79
2022/11/17 04:56:44;;;;;;;8.60;6.50;;;;;;;4.88;96.64;99043.02;104042;1288;60489;-77
2022/11/17 04:59:11;;;;;;;8.20;6.10;;;;;;;4.88;96.78;99043.17;103665;1302;74564;-79
2022/11/17 05:01:37;;;;;;;9.40;6.30;;;;;;;4.87;96.76;99033.73;103846;1300;70403;-79
2022/11/17 05:04:06;;;;;;;9.40;6.80;;;;;;;4.83;96.69;99029.88;103791;1295;61414;-78
2022/11/17 05:06:41;;;;;;;9.10;6.40;;;;;;;4.84;96.89;99027.67;103726;1298;61185;-78
2022/11/17 05:09:14;;;;;;;7.40;5.20;;;;;;;4.82;96.96;99019.88;103409;1293;61167;-75
2022/11/17 05:14:27;;;;;;;8.00;5.20;;;;;;;4.79;97.26;99013.95;103789;1294;71055;-78
2022/11/17 05:17:03;;;;;;;7.50;5.80;;;;;;;4.78;97.20;99016.38;103696;1295;73229;-78
2022/11/17 05:19:45;;;;;;;9.10;6.00;;;;;;;4.79;97.24;99010.88;103465;1293;61286;-76
2022/11/17 05:25:00;;;;;;;9.20;6.20;;;;;;;4.78;97.32;99010.41;103541;1294;73197;-78
2022/11/17 05:27:26;;;;;;;8.90;6.20;;;;;;;4.75;97.24;99016.27;103487;1295;70008;-77
2022/11/17 05:29:53;;;;;;;8.10;6.20;;;;;;;4.75;97.22;99013.10;103888;1295;71681;-77
2022/11/17 05:32:19;;;;;;;9.80;6.10;;;;;;;4.74;97.42;99012.13;104162;1291;61095;-78
2022/11/17 05:34:46;;;;;;;10.50;6.60;;;;;;;4.71;97.39;99008.95;103559;1301;59427;-77
2022/11/17 05:37:12;;;;;;;9.00;6.60;;;;;;;4.72;97.35;99012.70;103284;1285;61247;-76
2022/11/17 05:39:39;;;;;;;8.90;6.50;;;;;;;4.70;97.36;99007.52;103957;1289;59481;-77
2022/11/17 05:42:05;;;;;;;9.60;7.30;;;;;;;4.69;97.62;99006.55;103737;1287;60875;-77
2022/11/17 05:44:32;;;;;;;8.60;6.50;;;;;;;4.68;97.61;99004.36;103750;1292;61414;-76
2022/11/17 05:46:58;;;;;;;9.00;7.10;;;;;;;4.68;97.67;99005.84;103532;1288;61647;-75
2022/11/17 05:49:25;;;;;;;8.70;7.00;;;;;;;4.68;97.68;99008.06;104432;1294;61463;-77
2022/11/17 05:51:51;;;;;;;10.00;7.20;;;;;;;4.66;97.53;99013.77;104047;1301;61395;-75
2022/11/17 05:54:19;;;;;;;9.60;6.90;;;;;;;4.65;97.64;99017.39;103510;1301;71533;-76
2022/11/17 05:56:50;;;;;;;9.90;7.00;;;;;;;4.65;97.70;99015.42;103878;1301;61245;-76
2022/11/17 05:59:40;;;;;;;9.00;6.80;;;;;;;4.65;97.65;99010.89;103521;1294;61229;-76
2022/11/17 06:02:45;;;;;;;10.30;6.70;;;;;;;4.66;97.63;98999.51;103576;1286;73475;-76
2022/11/17 06:05:11;;;;;;;9.50;7.30;;;;;;;4.65;97.50;98994.90;104118;1301;71085;-75
2022/11/17 06:07:45;;;;;;;10.80;7.20;;;;;;;4.65;97.56;98993.48;104101;1294;71455;-77
2022/11/17 06:10:12;;;;;;;8.50;6.10;;;;;;;4.65;97.61;98988.50;104040;1302;61680;-74
2022/11/17 06:12:38;;;;;;;11.10;7.40;;;;;;;4.65;97.78;98991.19;103984;1295;61280;-75
2022/11/17 06:15:05;;;;;;;9.70;7.20;;;;;;;4.65;97.79;98991.06;105201;1288;59390;-75
2022/11/17 06:17:39;;;;;;;11.60;8.30;;;;;;;4.65;97.84;98990.20;103703;1295;69548;-74
2022/11/17 06:20:18;;;;;;;10.70;7.70;;;;;;;4.66;97.70;98991.35;103610;1295;71203;-74
2022/11/17 06:22:45;;;;;;;11.20;8.00;;;;;;;4.62;97.81;98981.77;104047;1297;61232;-75
2022/11/17 06:25:15;;;;;;;11.20;8.00;;;;;;;4.60;97.91;98984.36;103905;1293;58509;-75
2022/11/17 06:27:42;;;;;;;11.10;8.10;;;;;;;4.59;97.83;98975.29;103741;1294;74561;-75
2022/11/17 06:30:09;;;;;;;9.90;7.50;;;;;;;4.56;97.99;98977.58;103327;1294;240032;-75
2022/11/17 06:32:39;;;;;;;12.50;9.40;;;;;;;4.57;98.02;98984.02;103413;1295;70670;-75
2022/11/17 06:35:07;;;;;;;12.20;8.70;;;;;;;4.56;98.03;98985.14;104070;1292;61620;-75
2022/11/17 06:37:34;;;;;;;11.60;9.40;;;;;;;4.53;98.08;98980.92;103844;1298;60439;-75
2022/11/17 06:40:00;;;;;;;14.20;8.80;;;;;;;4.52;98.11;98984.19;103412;1287;61274;-76
2022/11/17 06:45:12;;;;;;;13.70;10.70;;;;;;;4.47;98.30;98979.43;103711;1292;72501;-74
2022/11/17 06:47:38;;;;;;;14.10;10.40;;;;;;;4.47;98.37;98975.48;103519;1295;61327;-74
2022/11/17 06:50:05;;;;;;;13.20;9.50;;;;;;;4.44;98.23;98971.63;103427;1297;61427;-75
2022/11/17 06:52:32;;;;;;;12.70;9.80;;;;;;;4.40;98.24;98972.56;103724;1301;74606;-74
2022/11/17 06:54:58;;;;;;;14.60;10.50;;;;;;;4.37;98.52;98968.03;103381;1287;61436;-74
2022/11/17 06:57:25;;;;;;;13.90;10.40;;;;;;;4.33;98.84;98971.89;103866;1293;59498;-75
2022/11/17 06:59:51;;;;;;;13.80;10.10;;;;;;;4.32;98.91;98973.39;103242;1295;61382;-75
2022/11/17 07:02:18;;;;;;;14.50;10.10;;;;;;;4.29;99.25;98968.33;104120;1294;61717;-74
2022/11/17 07:04:44;;;;;;;13.30;9.50;;;;;;;4.24;99.51;98967.61;103029;1286;60263;-73
2022/11/17 07:07:12;;;;;;;14.50;10.00;;;;;;;4.22;99.82;98969.48;103535;1293;61409;-74
2022/11/17 07:09:38;;;;;;;14.50;10.50;;;;;;;4.18;99.94;98961.52;102973;1294;72596;-75
2022/11/17 07:12:05;;;;;;;13.50;9.80;;;;;;;4.16;100.00;98964.92;102797;1300;61299;-76
2022/11/17 07:14:31;;;;;;;13.60;9.70;;;;;;;4.14;100.00;98965.02;102788;1300;61552;-75
2022/11/17 07:16:58;;;;;;;16.20;10.10;;;;;;;4.11;100.00;98966.99;102756;1289;61365;-74
2022/11/17 07:19:24;;;;;;;17.20;10.00;;;;;;;4.09;100.00;98969.17;104552;1287;59459;-74
2022/11/17 07:21:50;;;;;;;15.30;10.50;;;;;;;4.06;100.00;98967.89;102826;1292;62024;-74
2022/11/17 07:24:17;;;;;;;15.00;10.20;;;;;;;4.07;100.00;98963.50;102837;1293;61273;-73
2022/11/17 07:26:43;;;;;;;15.30;11.00;;;;;;;4.05;100.00;98956.84;102971;1295;61270;-74
2022/11/17 07:29:10;;;;;;;16.60;11.70;;;;;;;4.05;100.00;98961.77;102545;1295;61494;-75
2022/11/17 07:31:36;;;;;;;14.00;9.10;;;;;;;4.05;100.00;98964.52;103223;1294;62136;-74
2022/11/17 07:34:02;;;;;;;15.00;10.80;;;;;;;4.03;100.00;98971.62;102862;1284;61161;-74
2022/11/17 07:36:29;;;;;;;16.90;10.60;;;;;;;4.00;100.00;98959.02;103292;1304;61215;-74
2022/11/17 07:38:55;;;;;;;15.20;10.00;;;;;;;3.97;100.00;98955.56;102555;1295;61792;-74
2022/11/17 07:41:22;;;;;;;16.60;11.00;;;;;;;3.93;100.00;98955.59;102589;1294;61329;-74
2022/11/17 07:43:48;;;;;;;14.40;10.80;;;;;;;3.92;100.00;98959.92;102897;1293;61272;-75
2022/11/17 07:46:15;;;;;;;15.00;9.00;;;;;;;3.90;100.00;98964.85;102578;1295;61549;-75
2022/11/17 07:48:42;;;;;;;14.10;8.90;;;;;;;3.87;100.00;98957.90;102740;1294;61844;-74
2022/11/17 07:51:11;;;;;;;15.40;10.40;;;;;;;3.84;100.00;98958.92;102719;1304;59630;-75
2022/11/17 07:53:37;;;;;;;14.30;10.40;;;;;;;3.84;100.00;98959.74;103765;1297;73427;-75
2022/11/17 07:56:06;;;;;;;14.30;9.90;;;;;;;3.82;100.00;98958.02;103193;1297;62502;-75
2022/11/17 07:58:32;;;;;;;16.50;10.50;;;;;;;3.84;100.00;98950.55;102997;1294;72917;-75
2022/11/17 08:01:04;;;;;;;15.30;10.20;;;;;;;3.83;100.00;98941.36;102999;1288;61338;-75
2022/11/17 08:03:31;;;;;;;13.70;9.50;;;;;;;3.81;100.00;98943.67;102881;1292;60499;-75
2022/11/17 08:06:04;;;;;;;13.60;9.40;;;;;;;3.81;100.00;98946.73;103035;1295;61397;-75
2022/11/17 08:08:30;;;;;;;13.30;9.40;;;;;;;3.79;100.00;98945.36;102797;1295;69562;-75
2022/11/17 08:11:02;;;;;;;17.40;10.40;;;;;;;3.77;100.00;98941.20;103316;1294;70427;-76
2022/11/17 08:13:28;;;;;;;15.10;9.90;;;;;;;3.77;100.00;98936.98;103346;1294;62445;-74
2022/11/17 08:15:56;;;;;;;13.00;9.10;;;;;;;3.75;100.00;98928.60;102952;1286;61283;-75
2022/11/17 08:18:22;;;;;;;12.70;8.50;;;;;;;3.75;100.00;98922.36;102765;1295;75313;-74
2022/11/17 08:20:49;;;;;;;13.60;8.90;;;;;;;3.75;100.00;98912.57;103011;1294;61826;-74
2022/11/17 08:23:15;;;;;;;12.80;9.00;;;;;;;3.75;100.00;98904.38;102828;1293;61270;-74
2022/11/17 08:25:42;;;;;;;12.80;8.10;;;;;;;3.76;100.00;98903.12;102694;1293;61324;-75
2022/11/17 08:28:08;;;;;;;13.00;9.40;;;;;;;3.74;100.00;98901.27;103023;1292;62092;-74
2022/11/17 08:30:35;;;;;;;12.70;8.60;;;;;;;3.75;100.00;98897.23;103401;1296;75304;-74
2022/11/17 08:33:01;;;;;;;11.50;8.50;;;;;;;3.73;100.00;98889.49;102834;1294;61308;-75
2022/11/17 08:35:28;;;;;;;13.50;8.70;;;;;;;3.74;100.00;98881.27;102823;1301;61861;-73
2022/11/17 08:38:02;;;;;;;12.50;8.30;;;;;;;3.74;100.00;98878.90;102733;1302;61270;-73
2022/11/17 08:40:29;;;;;;;12.00;8.00;;;;;;;3.73;100.00;98877.84;102927;1294;60099;-74
2022/11/17 08:42:55;;;;;;;11.00;6.60;;;;;;;3.73;100.00;98872.88;102773;1292;61447;-74
2022/11/17 08:45:26;;;;;;;10.00;7.30;;;;;;;3.73;100.00;98868.84;103151;1301;71151;-75
2022/11/17 08:47:54;;;;;;;11.40;8.10;;;;;;;3.74;100.00;98859.53;103614;1285;61772;-74
2022/11/17 08:50:21;;;;;;;10.20;7.30;;;;;;;3.77;100.00;98865.27;103183;1288;61369;-74
2022/11/17 08:52:47;;;;;;;9.80;7.00;;;;;;;3.79;100.00;98866.64;102720;1288;62490;-74
2022/11/17 08:55:14;;;;;;;9.80;6.20;;;;;;;3.81;100.00;98867.63;102647;1301;61500;-74
2022/11/17 08:57:41;;;;;;;8.20;6.00;;;;;;;3.82;100.00;98870.52;102777;1294;71661;-74
2022/11/17 09:00:08;;;;;;;8.40;6.10;;;;;;;3.83;100.00;98866.88;102667;1301;61669;-74
2022/11/17 09:02:36;;;;;;;11.40;6.30;;;;;;;3.89;100.00;98867.98;102726;1302;61895;-74
2022/11/17 09:05:03;;;;;;;8.10;6.10;;;;;;;3.91;100.00;98877.70;103528;1294;59606;-74
2022/11/17 09:07:33;;;;;;;8.20;5.10;;;;;;;3.93;100.00;98878.63;103544;1294;72309;-74
2022/11/17 09:10:02;;;;;;;8.30;5.60;;;;;;;3.97;100.00;98878.23;102601;1304;68876;-74
2022/11/17 09:12:28;;;;;;;7.70;5.60;;;;;;;4.00;100.00;98877.68;102533;1301;72718;-73
2022/11/17 09:14:55;;;;;;;7.00;5.00;;;;;;;4.02;100.00;98881.54;102809;1295;61287;-73
2022/11/17 09:17:22;;;;;;;7.30;4.70;;;;;;;4.02;100.00;98880.27;103041;1294;61577;-73
2022/11/17 09:19:49;;;;;;;7.30;5.50;;;;;;;4.00;100.00;98863.64;102829;1297;74440;-73
2022/11/17 09:22:15;;;;;;;6.40;4.40;;;;;;;4.02;100.00;98869.25;102568;1295;62048;-73
2022/11/17 09:24:41;;;;;;;7.90;5.20;;;;;;;4.01;100.00;98868.06;103683;1300;61174;-73
2022/11/17 09:27:08;;;;;;;7.00;4.70;;;;;;;4.03;99.98;98873.49;102962;1287;62561;-74
2022/11/17 09:29:34;;;;;;;7.40;5.30;;;;;;;4.02;100.00;98864.08;102825;1302;61430;-74
2022/11/17 09:32:01;;;;;;;6.40;4.80;;;;;;;4.04;99.99;98874.16;102695;1288;61477;-73
2022/11/17 09:34:28;;;;;;;6.40;4.40;;;;;;;4.07;99.93;98876.31;103002;1294;61394;-73
2022/11/17 09:36:55;;;;;;;5.90;4.30;;;;;;;4.09;99.99;98878.88;102793;1301;71625;-74
2022/11/17 09:39:21;;;;;;;6.80;4.50;;;;;;;4.11;99.82;98886.02;102769;1294;61380;-74
2022/11/17 09:41:50;;;;;;;6.50;4.50;;;;;;;4.10;99.95;98886.45;102931;1297;61408;-74
2022/11/17 09:44:33;;;;;;;7.20;4.30;;;;;;;4.12;99.93;98890.70;103439;1297;73177;-74
2022/11/17 09:47:05;;;;;;;6.60;4.70;;;;;;;4.12;99.56;98891.91;102807;1294;71071;-73
2022/11/17 09:49:44;;;;;;;6.60;5.00;;;;;;;4.14;99.62;98889.66;103120;1293;71152;-74
2022/11/17 09:52:18;;;;;;;6.90;4.50;;;;;;;4.15;99.72;98891.36;102687;1294;64041;-74
2022/11/17 09:54:51;;;;;;;7.00;5.00;;;;;;;4.15;99.58;98885.98;102807;1295;61276;-74
2022/11/17 09:57:24;;;;;;;7.00;4.80;;;;;;;4.17;99.57;98889.61;102705;1301;73159;-73
2022/11/17 10:00:02;;;;;;;6.60;4.80;;;;;;;4.19;99.48;98891.59;102956;1302;70989;-74
2022/11/17 10:02:29;;;;;;;8.20;4.60;;;;;;;4.20;99.53;98885.48;103838;1293;71794;-74
2022/11/17 10:04:56;;;;;;;7.30;5.30;;;;;;;4.22;99.56;98885.42;102789;1302;61371;-74
2022/11/17 10:07:22;;;;;;;7.40;5.40;;;;;;;4.26;99.38;98888.50;102888;1294;61661;-73
2022/11/17 10:09:51;;;;;;;6.80;4.70;;;;;;;4.28;99.13;98884.93;102691;1296;61273;-73
2022/11/17 10:12:24;;;;;;;7.20;5.40;;;;;;;4.29;99.15;98882.02;103120;1294;69318;-74
2022/11/17 10:14:52;;;;;;;8.20;5.40;;;;;;;4.33;99.07;98891.88;102905;1292;71316;-73
2022/11/17 10:17:19;;;;;;;7.90;5.50;;;;;;;4.36;99.19;98882.63;102752;1295;61424;-73
2022/11/17 10:19:45;;;;;;;7.50;4.80;;;;;;;4.41;99.16;98890.45;103644;1287;61404;-73
2022/11/17 10:22:34;;;;;;;7.10;5.30;;;;;;;4.43;99.12;98892.08;103292;1293;62987;-73
2022/11/17 10:25:01;;;;;;;8.40;5.60;;;;;;;4.47;98.90;98892.17;102838;1295;71301;-73
2022/11/17 10:27:33;;;;;;;6.60;4.90;;;;;;;4.49;98.81;98891.89;102931;1294;61405;-74
2022/11/17 10:30:05;;;;;;;7.40;5.20;;;;;;;4.52;98.99;98889.50;102522;1301;61280;-73
2022/11/17 10:32:48;;;;;;;7.50;5.20;;;;;;;4.54;98.91;98891.24;102906;1297;61645;-74
2022/11/17 10:35:23;;;;;;;6.60;4.90;;;;;;;4.58;98.96;98886.58;102712;1295;75964;-74
2022/11/17 10:38:02;;;;;;;7.20;4.90;;;;;;;4.64;99.02;98884.77;102762;1294;69440;-74
2022/11/17 10:40:32;;;;;;;6.50;3.90;;;;;;;4.64;99.04;98883.52;103601;1301;71422;-75
2022/11/17 10:43:20;;;;;;;5.90;4.40;;;;;;;4.64;98.88;98878.27;102916;1301;61263;-75
2022/11/17 10:45:50;;;;;;;6.00;4.50;;;;;;;4.66;98.91;98872.56;102926;1295;61408;-75
2022/11/17 10:48:25;;;;;;;6.00;4.20;;;;;;;4.65;98.95;98867.27;102841;1301;72462;-74
2022/11/17 10:50:53;;;;;;;6.80;4.50;;;;;;;4.64;99.10;98857.42;102965;1295;71483;-74
2022/11/17 10:53:24;;;;;;;5.40;3.70;;;;;;;4.63;99.24;98856.84;103216;1292;71779;-73
2022/11/17 10:55:58;;;;;;;7.30;3.80;;;;;;;4.64;99.24;98856.09;103509;1301;61274;-74
2022/11/17 10:58:28;;;;;;;6.80;4.60;;;;;;;4.65;99.30;98855.17;103045;1294;61801;-74
2022/11/17 11:01:03;;;;;;;4.80;3.60;;;;;;;4.68;99.33;98851.58;102686;1297;73521;-73
2022/11/17 11:03:33;;;;;;;4.50;3.50;;;;;;;4.72;99.34;98850.37;102802;1294;69897;-74
2022/11/17 11:06:23;;;;;;;5.70;3.90;;;;;;;4.75;99.27;98853.03;102789;1301;72781;-74
2022/11/17 11:09:19;;;;;;;5.20;3.50;;;;;;;4.77;99.06;98847.69;103162;1300;61419;-73
2022/11/17 11:11:48;;;;;;;5.80;4.00;;;;;;;4.78;99.18;98845.61;102729;1301;61585;-75
2022/11/17 11:14:29;;;;;;;4.90;3.70;;;;;;;4.80;99.08;98846.27;104093;1288;73498;-74
2022/11/17 11:16:56;;;;;;;4.90;3.30;;;;;;;4.81;99.21;98839.09;103043;1294;70580;-75
2022/11/17 11:19:24;;;;;;;5.20;3.40;;;;;;;4.82;99.35;98835.79;102883;1295;72572;-74
2022/11/17 11:22:15;;;;;;;4.10;3.10;;;;;;;4.83;99.35;98834.80;102796;1301;61304;-74
2022/11/17 11:24:53;;;;;;;4.90;3.20;;;;;;;4.82;99.36;98832.22;102932;1300;61357;-74
2022/11/17 11:27:55;;;;;;;4.40;2.70;;;;;;;4.81;99.50;98835.86;103034;1291;73143;-74
2022/11/17 11:30:22;;;;;;;5.10;3.30;;;;;;;4.83;99.73;98834.20;103147;1295;69570;-73
2022/11/17 11:33:32;;;;;;;5.20;2.90;;;;;;;4.82;99.58;98836.88;103667;1301;73025;-75
2022/11/17 11:36:34;;;;;;;4.80;3.00;;;;;;;4.81;99.76;98834.24;103326;1301;61628;-74
2022/11/17 11:39:20;;;;;;;4.60;3.30;;;;;;;4.80;99.66;98827.28;102812;1302;61650;-74
2022/11/17 11:41:51;;;;;;;4.40;2.90;;;;;;;4.78;99.65;98833.48;103198;1295;73791;-74
2022/11/17 11:44:25;;;;;;;3.90;2.90;;;;;;;4.77;99.78;98838.04;102952;1292;70837;-73
2022/11/17 11:47:18;;;;;;;4.00;2.90;;;;;;;4.76;99.82;98832.08;102917;1285;71146;-74
2022/11/17 11:49:57;;;;;;;4.50;3.00;;;;;;;4.76;99.91;98833.81;103687;1295;61293;-75
2022/11/17 11:52:30;;;;;;;4.80;3.20;;;;;;;4.76;100.00;98832.92;103597;1303;61437;-74
2022/11/17 11:55:04;;;;;;;4.70;3.40;;;;;;;4.76;100.00;98835.84;102959;1281;73202;-74
2022/11/17 11:57:44;;;;;;;4.70;3.30;;;;;;;4.74;99.98;98833.27;102754;1300;69786;-72
2022/11/17 12:00:16;;;;;;;4.20;3.10;;;;;;;4.75;100.00;98838.30;103076;1295;71897;-73
2022/11/17 12:02:51;;;;;;;4.30;3.20;;;;;;;4.77;100.00;98831.90;102998;1295;61290;-74
2022/11/17 12:05:46;;;;;;;4.30;3.30;;;;;;;4.77;99.98;98833.44;102908;1291;61214;-72
2022/11/17 12:08:24;;;;;;;4.50;3.70;;;;;;;4.80;100.00;98841.94;103540;1301;73158;-73
2022/11/17 12:14:03;;;;;;;4.90;3.20;;;;;;;4.83;100.00;98837.70;102715;1301;71587;-74
2022/11/17 12:16:35;;;;;;;4.50;3.50;;;;;;;4.86;100.00;98839.77;102921;1294;61363;-74
2022/11/17 12:19:21;;;;;;;4.10;3.20;;;;;;;4.88;100.00;98840.71;103147;1291;61384;-74